Time;durP1;ratioP1;P1;durP2;ratioP2;P2;SDS_P1;SDS_P2;PMS_P1;PMS_P2;Temp;Humidity;BMP_temperature;BMP_pressure;BME280_temperature;BME280_humidity;BME280_pressure;Samples;Min_cycle;Max_cycle;Signal;HPM_P1;HPM_P2
2021/12/07 00:02:12;;;;;;;7.87;6.60;;;;;;;2.66;77.21;95075.03;4979057;28;20267;-84
2021/12/07 00:04:41;;;;;;;7.27;6.20;;;;;;;2.61;77.49;95080.53;4977907;28;20236;-83
2021/12/07 00:07:08;;;;;;;9.03;7.47;;;;;;;2.63;77.38;95080.41;4979154;28;20203;-83
2021/12/07 00:09:35;;;;;;;8.90;6.77;;;;;;;2.54;77.45;95079.47;4978154;28;20220;-83
2021/12/07 00:12:04;;;;;;;7.43;6.50;;;;;;;2.47;77.82;95078.44;4977981;28;20375;-84
2021/12/07 00:14:37;;;;;;;7.90;6.73;;;;;;;2.48;78.27;95089.41;4977537;28;20231;-83
2021/12/07 00:17:04;;;;;;;8.13;7.07;;;;;;;2.38;78.44;95076.72;4988171;28;20275;-83
2021/12/07 00:19:31;;;;;;;7.83;7.03;;;;;;;2.34;78.53;95067.78;4982061;28;20600;-83
2021/12/07 00:21:59;;;;;;;8.33;7.00;;;;;;;2.36;78.23;95074.31;4978755;28;20204;-83
2021/12/07 00:24:26;;;;;;;8.57;7.30;;;;;;;2.41;78.37;95079.00;4978226;28;20247;-83
2021/12/07 00:26:53;;;;;;;8.27;7.37;;;;;;;2.42;78.12;95073.78;4979010;28;20204;-83
2021/12/07 00:29:20;;;;;;;8.73;7.33;;;;;;;2.39;78.47;95079.13;4978262;28;20243;-84
2021/12/07 00:31:53;;;;;;;9.00;7.20;;;;;;;2.33;78.66;95069.53;4978498;28;20212;-83
2021/12/07 00:34:38;;;;;;;9.60;7.80;;;;;;;2.36;78.97;95061.63;4978253;28;20220;-83
2021/12/07 00:37:06;;;;;;;8.93;8.00;;;;;;;2.28;78.91;95053.13;4977887;28;20216;-84
2021/12/07 00:39:33;;;;;;;8.87;7.90;;;;;;;2.33;78.94;95048.41;4977573;28;20242;-84
2021/12/07 00:41:59;;;;;;;9.50;7.73;;;;;;;2.42;78.76;95057.75;4976509;28;20623;-83
2021/12/07 00:44:27;;;;;;;9.17;7.70;;;;;;;2.53;78.49;95054.22;4977567;28;20251;-83
2021/12/07 00:46:54;;;;;;;9.23;7.47;;;;;;;2.46;78.38;95055.72;4977764;28;20192;-83
2021/12/07 00:49:21;;;;;;;9.20;7.47;;;;;;;2.42;78.47;95050.13;4977477;28;20293;-84
2021/12/07 00:51:48;;;;;;;9.67;7.30;;;;;;;2.36;78.95;95050.66;4977022;28;20203;-83
2021/12/07 00:54:16;;;;;;;8.30;7.40;;;;;;;2.45;78.71;95054.94;4977821;28;20212;-83
2021/12/07 00:56:42;;;;;;;8.33;7.43;;;;;;;2.47;78.76;95047.16;4976503;28;20216;-84
2021/12/07 00:59:09;;;;;;;9.17;7.17;;;;;;;2.48;78.00;95048.78;4975211;28;20239;-83
2021/12/07 01:01:36;;;;;;;8.23;6.83;;;;;;;2.48;77.71;95039.41;4975932;28;20278;-84
2021/12/07 01:04:03;;;;;;;8.30;6.67;;;;;;;2.43;77.88;95034.75;4975980;28;20216;-83
2021/12/07 01:06:33;;;;;;;7.87;6.50;;;;;;;2.38;77.71;95029.28;4975013;28;20219;-83
2021/12/07 01:09:13;;;;;;;7.83;6.80;;;;;;;2.37;77.62;95035.28;4975463;28;20465;-83
2021/12/07 01:25:44;;;;;;;6.83;5.87;;;;;;;2.60;76.67;95033.19;4975156;28;20219;-83
2021/12/07 01:28:20;;;;;;;7.23;6.50;;;;;;;2.60;76.33;95022.22;4974308;28;20199;-83
2021/12/07 01:30:53;;;;;;;7.50;5.97;;;;;;;2.56;76.18;95014.06;4973731;28;20670;-83
2021/12/07 01:36:14;;;;;;;6.30;5.67;;;;;;;2.49;75.94;95020.69;4970769;28;20236;-83
2021/12/07 01:41:38;;;;;;;6.47;5.57;;;;;;;2.40;76.32;95014.69;4974111;28;20223;-84
2021/12/07 01:44:23;;;;;;;6.30;5.23;;;;;;;2.40;76.16;95021.50;4974241;28;20231;-83
2021/12/07 01:47:04;;;;;;;6.23;4.93;;;;;;;2.41;76.06;95026.44;4973977;28;20294;-84
2021/12/07 01:50:03;;;;;;;5.80;5.10;;;;;;;2.57;75.86;95027.59;4974236;28;20786;-83
2021/12/07 01:52:52;;;;;;;5.67;4.93;;;;;;;2.58;75.46;95024.91;4973642;28;20211;-83
2021/12/07 02:00:51;;;;;;;4.83;4.27;;;;;;;2.46;75.41;95012.53;4974805;28;20602;-83
2021/12/07 02:03:19;;;;;;;4.83;4.33;;;;;;;2.41;75.28;95018.03;4974276;28;20283;-84
2021/12/07 02:05:46;;;;;;;4.63;4.13;;;;;;;2.46;75.64;95005.72;4973548;28;20675;-84
2021/12/07 02:08:13;;;;;;;4.30;3.83;;;;;;;2.49;74.99;95015.59;4972740;28;20719;-83
2021/12/07 02:10:40;;;;;;;4.43;3.90;;;;;;;2.45;74.90;95005.84;4974160;28;20243;-84
2021/12/07 02:13:19;;;;;;;4.83;4.10;;;;;;;2.50;74.47;95003.69;4973489;28;20224;-83
2021/12/07 02:15:46;;;;;;;3.97;3.57;;;;;;;2.45;74.46;94996.50;4974928;28;20810;-84
2021/12/07 02:18:14;;;;;;;3.30;3.00;;;;;;;2.39;74.55;94995.31;4974256;28;20204;-83
2021/12/07 02:20:41;;;;;;;3.80;3.07;;;;;;;2.35;74.18;94998.25;4974342;28;20243;-83
2021/12/07 02:23:09;;;;;;;3.30;3.00;;;;;;;2.37;74.46;94991.31;4973245;28;20227;-83
2021/12/07 02:25:36;;;;;;;3.30;3.00;;;;;;;2.34;74.47;94984.75;4973964;28;20255;-83
2021/12/07 02:28:06;;;;;;;4.03;3.43;;;;;;;2.34;74.38;94989.03;4973260;28;20192;-83
2021/12/07 02:30:32;;;;;;;3.40;3.10;;;;;;;2.26;74.73;94986.44;4973430;28;20292;-83
2021/12/07 02:32:59;;;;;;;3.07;2.77;;;;;;;2.20;74.86;94987.78;4973969;28;20227;-83
2021/12/07 02:35:27;;;;;;;4.13;3.20;;;;;;;2.27;74.75;94983.75;4978000;28;20219;-83
2021/12/07 02:37:55;;;;;;;2.80;2.50;;;;;;;2.31;74.01;94972.34;4982056;28;20228;-83
2021/12/07 02:40:23;;;;;;;2.40;2.20;;;;;;;2.27;73.91;94965.16;4977900;28;20236;-84
2021/12/07 02:42:50;;;;;;;2.43;2.23;;;;;;;2.17;73.85;94972.00;4976980;28;20208;-84
2021/12/07 02:45:18;;;;;;;2.60;2.23;;;;;;;2.11;73.32;94970.06;4977486;28;20207;-84
2021/12/07 02:47:45;;;;;;;2.90;2.23;;;;;;;2.21;73.70;94983.50;4976963;28;20243;-83
2021/12/07 02:50:12;;;;;;;2.47;2.27;;;;;;;2.29;73.82;94979.34;4976761;28;20311;-83
2021/12/07 02:52:39;;;;;;;2.20;2.00;;;;;;;2.32;72.79;94983.31;4976396;28;20236;-84
2021/12/07 02:55:07;;;;;;;2.50;2.20;;;;;;;2.36;73.05;94977.00;4975938;28;20600;-84
2021/12/07 02:57:35;;;;;;;3.27;2.23;;;;;;;2.37;72.37;94974.31;4976148;28;20581;-83
2021/12/07 03:00:09;;;;;;;2.40;2.03;;;;;;;2.48;72.21;94975.09;4974675;28;20712;-83
2021/12/07 03:02:43;;;;;;;2.30;2.10;;;;;;;2.42;71.47;94976.44;4974731;28;20228;-84
2021/12/07 03:05:21;;;;;;;2.30;2.10;;;;;;;2.52;71.92;94982.25;4977964;28;20199;-84
2021/12/07 03:08:07;;;;;;;3.33;2.40;;;;;;;2.58;71.60;94989.34;4978800;28;20576;-84
2021/12/07 03:27:00;;;;;;;2.40;2.20;;;;;;;2.75;74.67;95008.09;4978272;28;20211;-83
2021/12/07 03:29:28;;;;;;;3.00;2.27;;;;;;;2.79;75.76;95004.31;4976830;28;20220;-83
2021/12/07 03:31:57;;;;;;;2.40;2.20;;;;;;;2.72;76.81;95009.16;4978475;28;20211;-83
2021/12/07 03:34:24;;;;;;;3.23;2.20;;;;;;;2.56;79.34;95010.75;4976443;28;20224;-83
2021/12/07 03:36:50;;;;;;;2.27;2.07;;;;;;;2.44;80.11;95012.69;4977169;28;20220;-84
2021/12/07 03:39:16;;;;;;;2.77;2.20;;;;;;;2.36;82.00;95015.09;4977129;28;20232;-84
2021/12/07 03:41:43;;;;;;;2.40;2.20;;;;;;;2.31;83.13;95009.66;4976528;28;20738;-83
2021/12/07 03:44:12;;;;;;;2.30;2.10;;;;;;;2.38;82.83;95010.69;4976873;28;20231;-83
2021/12/07 03:46:40;;;;;;;2.40;2.20;;;;;;;2.38;83.03;95003.06;4976363;28;20251;-84
2021/12/07 03:49:06;;;;;;;2.23;1.97;;;;;;;2.43;82.82;95006.00;4976604;28;20232;-83
2021/12/07 03:51:33;;;;;;;2.00;1.80;;;;;;;2.45;83.24;95005.84;4976611;28;20199;-83
2021/12/07 03:53:59;;;;;;;2.07;1.87;;;;;;;2.49;83.43;95002.09;4976451;28;20315;-83
2021/12/07 03:56:26;;;;;;;2.73;2.00;;;;;;;2.50;83.62;95014.66;4975090;28;20204;-84
2021/12/07 03:58:52;;;;;;;2.00;1.90;;;;;;;2.51;83.52;95010.34;4975582;28;20212;-83
2021/12/07 04:01:23;;;;;;;2.00;1.80;;;;;;;2.46;83.74;95012.53;4976794;28;20208;-84
2021/12/07 04:03:52;;;;;;;1.83;1.60;;;;;;;2.35;84.84;95013.50;4978090;28;20228;-84
2021/12/07 04:06:19;;;;;;;2.10;1.70;;;;;;;2.36;85.41;95013.38;4977287;28;20200;-83
2021/12/07 04:08:47;;;;;;;1.97;1.77;;;;;;;2.44;84.67;95005.06;4976500;28;20200;-83
2021/12/07 04:11:15;;;;;;;3.13;1.63;;;;;;;2.43;84.57;95004.25;4976991;28;20211;-83
2021/12/07 04:13:44;;;;;;;2.00;1.60;;;;;;;2.42;85.82;95009.47;4976633;28;20263;-84
2021/12/07 04:16:12;;;;;;;1.70;1.60;;;;;;;2.33;86.13;94997.59;4978463;28;20208;-84
2021/12/07 04:18:39;;;;;;;1.50;1.40;;;;;;;2.33;86.08;95002.69;4977432;28;20224;-83
2021/12/07 04:21:07;;;;;;;1.70;1.60;;;;;;;2.25;86.53;95011.03;4976640;28;20310;-84
2021/12/07 04:23:34;;;;;;;3.13;1.40;;;;;;;2.32;86.37;95003.63;4977073;28;20641;-83
2021/12/07 04:26:01;;;;;;;1.70;1.53;;;;;;;2.46;85.69;95007.47;4976486;28;20227;-83
2021/12/07 04:28:28;;;;;;;2.30;1.50;;;;;;;2.41;85.78;95011.22;4976327;28;20308;-83
2021/12/07 04:30:54;;;;;;;1.67;1.40;;;;;;;2.34;86.27;95004.28;4976359;28;20235;-83
2021/12/07 04:33:21;;;;;;;1.30;1.20;;;;;;;2.29;86.68;95002.19;4975935;28;20219;-83
2021/12/07 04:35:50;;;;;;;1.70;1.50;;;;;;;2.43;86.25;95003.44;4975055;28;20203;-83
2021/12/07 04:38:19;;;;;;;1.87;1.43;;;;;;;2.53;86.03;95011.81;4975412;28;20219;-83
2021/12/07 04:40:46;;;;;;;1.50;1.40;;;;;;;2.51;86.99;95006.06;4972919;28;20248;-83
2021/12/07 04:43:13;;;;;;;1.87;1.77;;;;;;;2.53;86.99;95009.28;4975683;28;20286;-84
2021/12/07 04:45:53;;;;;;;1.30;1.20;;;;;;;2.48;88.18;95018.28;4975354;28;20196;-83
2021/12/07 04:48:50;;;;;;;1.43;1.33;;;;;;;2.41;88.93;94998.50;4975945;28;20686;-83
2021/12/07 04:59:30;;;;;;;1.40;1.30;;;;;;;2.31;91.69;95010.44;4977483;28;20607;-83
2021/12/07 05:01:56;;;;;;;1.40;1.30;;;;;;;2.27;92.38;95024.38;4977047;28;20204;-82
2021/12/07 05:04:27;;;;;;;1.37;1.27;;;;;;;2.26;93.46;95022.78;4977323;28;20725;-83
2021/12/07 05:07:01;;;;;;;1.63;1.30;;;;;;;2.40;92.93;95022.31;4977244;28;20243;-83
2021/12/07 05:09:41;;;;;;;2.73;1.90;;;;;;;2.66;100.00;95025.00;4978227;28;20666;-84
2021/12/07 05:12:28;;;;;;;1.30;1.20;;;;;;;2.64;90.73;95034.50;4975905;28;20226;-83
2021/12/07 05:15:02;;;;;;;2.23;1.20;;;;;;;2.56;89.78;95026.78;4976360;28;20742;-83
2021/12/07 05:17:55;;;;;;;1.17;1.00;;;;;;;2.37;91.19;95026.88;4957776;28;20224;-84
2021/12/07 05:39:56;;;;;;;1.30;1.20;;;;;;;2.56;91.21;95064.09;4967069;28;20258;-83
2021/12/07 05:42:24;;;;;;;3.20;1.30;;;;;;;2.55;91.64;95070.91;4974389;28;20203;-83
2021/12/07 05:44:51;;;;;;;1.50;1.03;;;;;;;2.59;92.14;95068.91;4968613;28;20298;-83
2021/12/07 05:47:18;;;;;;;3.07;2.80;;;;;;;3.15;100.00;95066.19;4967729;28;20244;-81
2021/12/07 05:49:45;;;;;;;2.10;1.43;;;;;;;4.08;100.00;95060.59;4970211;28;20252;-82
2021/12/07 05:52:12;;;;;;;2.23;1.17;;;;;;;4.38;84.26;95067.00;4971401;28;20208;-83
2021/12/07 05:54:38;;;;;;;0.90;0.90;;;;;;;4.08;82.33;95072.53;4969458;28;20242;-83
2021/12/07 05:57:05;;;;;;;1.20;1.10;;;;;;;3.74;83.20;95063.06;4973305;28;20607;-83
2021/12/07 05:59:33;;;;;;;2.53;1.20;;;;;;;3.39;85.13;95080.91;4972304;28;20231;-83
2021/12/07 06:02:01;;;;;;;1.70;1.30;;;;;;;3.23;86.43;95078.19;4971617;28;20200;-83
2021/12/07 06:04:28;;;;;;;2.03;1.17;;;;;;;3.10;86.63;95075.97;4974345;28;20216;-83
2021/12/07 06:06:55;;;;;;;1.53;1.30;;;;;;;3.15;86.26;95080.66;4974905;28;20598;-83
2021/12/07 06:09:21;;;;;;;1.40;1.30;;;;;;;3.01;86.40;95082.75;4972955;28;20232;-83
2021/12/07 06:11:50;;;;;;;5.60;4.10;;;;;;;2.99;86.93;95082.09;4973781;28;20211;-83
2021/12/07 06:14:18;;;;;;;1.30;1.20;;;;;;;2.91;87.51;95081.97;4973515;28;20228;-82
2021/12/07 06:16:46;;;;;;;1.37;1.27;;;;;;;2.82;87.94;95087.94;4974471;28;20238;-83
2021/12/07 06:19:13;;;;;;;1.20;1.00;;;;;;;2.88;87.25;95089.91;4972488;28;20235;-83
2021/12/07 06:21:39;;;;;;;1.37;1.23;;;;;;;2.87;87.15;95077.34;4969270;28;20204;-83
2021/12/07 06:24:06;;;;;;;1.30;1.17;;;;;;;2.88;87.29;95084.03;4972938;28;20246;-83
2021/12/07 06:26:33;;;;;;;2.90;1.13;;;;;;;2.83;87.02;95089.53;4972625;28;20215;-83
2021/12/07 06:29:00;;;;;;;1.30;1.20;;;;;;;2.91;87.28;95088.81;4970360;28;20211;-83
2021/12/07 06:31:26;;;;;;;2.30;1.50;;;;;;;2.89;86.56;95096.56;4973089;28;20211;-83
2021/12/07 06:33:54;;;;;;;1.30;1.20;;;;;;;2.93;86.30;95099.63;4972842;28;20238;-83
2021/12/07 06:36:24;;;;;;;2.70;1.33;;;;;;;2.90;85.92;95105.81;4971946;28;20214;-83
2021/12/07 06:38:51;;;;;;;2.00;1.30;;;;;;;2.89;86.10;95109.28;4973113;28;20234;-83
2021/12/07 06:41:17;;;;;;;2.13;1.70;;;;;;;2.96;86.08;95115.41;4976205;28;20205;-83
2021/12/07 06:43:44;;;;;;;2.30;1.60;;;;;;;3.03;85.42;95111.38;4973919;28;20236;-83
2021/12/07 06:46:11;;;;;;;1.90;1.67;;;;;;;3.00;84.98;95114.19;4971291;28;20200;-83
2021/12/07 06:48:38;;;;;;;1.60;1.50;;;;;;;3.03;85.25;95108.84;4976852;28;20574;-83
2021/12/07 06:51:06;;;;;;;1.77;1.67;;;;;;;3.05;85.49;95109.50;4973824;28;20224;-83
2021/12/07 06:53:36;;;;;;;3.30;2.07;;;;;;;3.10;85.40;95116.69;4967681;28;20227;-84
2021/12/07 06:56:04;;;;;;;1.97;1.80;;;;;;;3.03;84.51;95113.13;4976336;28;20271;-83
2021/12/07 06:58:30;;;;;;;1.90;1.40;;;;;;;3.11;84.88;95115.72;4969579;28;20227;-83
2021/12/07 07:00:57;;;;;;;2.37;1.97;;;;;;;3.09;85.09;95130.31;4976034;28;20723;-83
2021/12/07 07:03:23;;;;;;;3.17;1.80;;;;;;;3.21;84.97;95125.88;4976570;28;20228;-83
2021/12/07 07:05:50;;;;;;;1.70;1.60;;;;;;;3.27;84.67;95133.72;4973803;28;20208;-82
2021/12/07 07:08:18;;;;;;;2.23;1.90;;;;;;;3.24;84.11;95133.22;4973533;28;20208;-83
2021/12/07 07:10:46;;;;;;;2.57;1.60;;;;;;;3.22;84.30;95140.19;4974863;28;20261;-83
2021/12/07 07:13:13;;;;;;;1.77;1.63;;;;;;;3.22;84.36;95130.81;4972021;28;20305;-83
2021/12/07 07:15:39;;;;;;;2.63;2.10;;;;;;;3.23;84.26;95144.34;4977192;28;20204;-83
2021/12/07 07:18:06;;;;;;;2.33;2.10;;;;;;;3.27;83.45;95148.97;4977718;28;20235;-83
2021/12/07 07:20:33;;;;;;;2.20;1.77;;;;;;;3.16;84.08;95156.00;4981021;28;20239;-84
2021/12/07 07:23:00;;;;;;;4.00;2.00;;;;;;;3.21;83.65;95154.66;4985595;28;20219;-84
2021/12/07 07:25:28;;;;;;;3.03;2.37;;;;;;;3.25;83.98;95158.53;4979000;28;20207;-84
2021/12/07 07:27:54;;;;;;;2.13;1.70;;;;;;;3.19;83.53;95158.28;4979574;28;20195;-84
2021/12/07 07:30:22;;;;;;;2.20;1.87;;;;;;;3.22;83.83;95163.09;4980074;28;20220;-84
2021/12/07 07:32:50;;;;;;;2.93;2.00;;;;;;;3.25;84.04;95171.22;4980013;28;20211;-84
2021/12/07 07:35:17;;;;;;;2.07;1.90;;;;;;;3.31;83.21;95175.72;4979263;28;20216;-84
2021/12/07 07:37:45;;;;;;;3.20;1.63;;;;;;;3.41;83.26;95173.16;4979662;28;20254;-83
2021/12/07 07:40:17;;;;;;;1.80;1.70;;;;;;;3.37;82.98;95177.72;4978721;28;20247;-83
2021/12/07 07:42:45;;;;;;;2.63;1.70;;;;;;;3.39;82.79;95191.09;4980317;28;20200;-84
2021/12/07 07:45:12;;;;;;;2.47;1.70;;;;;;;3.39;82.92;95192.84;4977359;28;20279;-84
2021/12/07 07:47:40;;;;;;;2.10;1.70;;;;;;;3.43;82.98;95199.25;4978130;28;20207;-83
2021/12/07 07:50:09;;;;;;;2.00;1.80;;;;;;;3.40;83.18;95205.44;4977485;28;20239;-84
2021/12/07 07:52:35;;;;;;;1.80;1.70;;;;;;;3.29;83.94;95199.72;4977587;28;20207;-84
2021/12/07 07:55:03;;;;;;;2.00;1.80;;;;;;;3.29;84.16;95203.06;4976537;28;20777;-83
2021/12/07 07:57:29;;;;;;;2.00;1.80;;;;;;;3.40;83.97;95213.06;4977266;28;20200;-83
2021/12/07 07:59:57;;;;;;;3.20;1.70;;;;;;;3.43;83.51;95205.16;4977757;28;20621;-83
2021/12/07 08:02:24;;;;;;;2.77;1.93;;;;;;;3.54;82.47;95219.41;4976569;28;20254;-83
2021/12/07 08:04:50;;;;;;;1.90;1.80;;;;;;;3.45;82.00;95203.28;4975948;28;20216;-83
2021/12/07 08:07:17;;;;;;;3.13;1.87;;;;;;;3.50;81.78;95210.44;4975949;28;20196;-83
2021/12/07 08:09:43;;;;;;;2.23;1.90;;;;;;;3.49;81.31;95213.94;4976175;28;20280;-83
2021/12/07 08:12:10;;;;;;;2.63;1.80;;;;;;;3.38;80.97;95211.59;4976785;28;20204;-83
2021/12/07 08:14:36;;;;;;;2.67;1.90;;;;;;;3.37;81.77;95212.53;4976235;28;20228;-83
2021/12/07 08:17:04;;;;;;;2.03;1.83;;;;;;;3.38;81.01;95206.50;4975974;28;20200;-83
2021/12/07 08:19:32;;;;;;;2.23;1.87;;;;;;;3.45;80.69;95210.91;4976085;28;20255;-83
2021/12/07 08:21:58;;;;;;;3.60;2.00;;;;;;;3.57;81.74;95215.78;4977036;28;20212;-84
2021/12/07 08:24:25;;;;;;;2.47;1.80;;;;;;;3.79;79.38;95223.81;4974516;28;20262;-84
2021/12/07 08:26:51;;;;;;;2.03;1.90;;;;;;;3.66;79.13;95228.44;4974659;28;20196;-83
2021/12/07 08:29:18;;;;;;;2.70;2.00;;;;;;;3.77;78.81;95223.16;4975563;28;20228;-84
2021/12/07 08:31:44;;;;;;;2.27;1.97;;;;;;;4.14;77.58;95225.59;4971869;28;20208;-84
2021/12/07 08:34:12;;;;;;;2.13;1.73;;;;;;;4.40;76.24;95225.66;4975029;28;20212;-84
2021/12/07 08:36:39;;;;;;;1.67;1.57;;;;;;;4.50;75.15;95223.81;4975862;28;20208;-83
2021/12/07 08:39:06;;;;;;;1.73;1.57;;;;;;;4.66;74.68;95220.56;4969744;28;20654;-84
2021/12/07 08:41:33;;;;;;;2.90;1.90;;;;;;;4.96;73.93;95221.09;4975529;28;20200;-84
2021/12/07 08:44:00;;;;;;;3.90;3.03;;;;;;;5.00;72.96;95228.28;4969048;28;20240;-84
2021/12/07 08:46:26;;;;;;;3.17;1.80;;;;;;;4.97;72.78;95226.03;4969027;28;20565;-83
2021/12/07 08:48:53;;;;;;;2.50;1.70;;;;;;;5.06;72.69;95227.66;4974618;28;20211;-83
2021/12/07 08:51:21;;;;;;;2.03;1.87;;;;;;;5.12;72.11;95231.38;4975847;28;20231;-84
2021/12/07 08:53:53;;;;;;;1.90;1.80;;;;;;;5.44;71.99;95226.41;4976152;28;20675;-83
2021/12/07 09:01:48;;;;;;;1.60;1.50;;;;;;;5.57;70.94;95233.66;4969404;28;20207;-82
2021/12/07 09:04:17;;;;;;;1.90;1.70;;;;;;;5.70;70.17;95239.13;4974034;28;20223;-82
2021/12/07 09:06:45;;;;;;;2.77;1.90;;;;;;;5.76;69.34;95237.72;4973084;28;20212;-82
2021/12/07 09:09:12;;;;;;;1.87;1.73;;;;;;;5.83;69.38;95239.47;4973476;28;20232;-82
2021/12/07 09:11:38;;;;;;;1.60;1.50;;;;;;;5.50;69.91;95248.78;4975714;28;20204;-83
2021/12/07 09:14:05;;;;;;;1.97;1.77;;;;;;;5.29;70.87;95248.38;4975854;28;20255;-82
2021/12/07 09:16:32;;;;;;;1.93;1.73;;;;;;;5.12;71.69;95252.59;4974264;28;20212;-82
2021/12/07 09:18:58;;;;;;;3.23;2.10;;;;;;;4.87;72.89;95261.03;4974139;28;20224;-83
2021/12/07 09:21:27;;;;;;;1.90;1.80;;;;;;;4.60;74.72;95261.97;4973884;28;20871;-83
2021/12/07 09:23:55;;;;;;;2.13;1.87;;;;;;;4.35;77.20;95270.34;4972960;28;20228;-82
2021/12/07 09:26:22;;;;;;;3.30;2.00;;;;;;;4.26;78.36;95271.22;4972673;28;21175;-83
2021/12/07 09:28:48;;;;;;;2.80;1.97;;;;;;;4.29;78.35;95271.72;4974368;28;20203;-82
2021/12/07 09:31:16;;;;;;;2.90;1.90;;;;;;;4.65;76.76;95269.16;4974392;28;20222;-82
2021/12/07 09:33:42;;;;;;;2.40;2.13;;;;;;;4.88;81.58;95267.75;4972699;28;20224;-83
2021/12/07 09:36:10;;;;;;;2.53;2.10;;;;;;;5.14;75.58;95265.19;4973339;28;20800;-83
2021/12/07 09:38:37;;;;;;;2.47;2.00;;;;;;;5.17;73.25;95270.00;4975565;28;20227;-83
2021/12/07 09:41:07;;;;;;;4.67;2.40;;;;;;;4.95;73.12;95266.19;4974653;28;20730;-83
2021/12/07 09:43:33;;;;;;;2.93;2.00;;;;;;;5.02;73.24;95268.94;4969735;28;20294;-83
2021/12/07 09:46:00;;;;;;;4.07;2.00;;;;;;;5.30;72.18;95261.94;4973356;28;20263;-83
2021/12/07 09:48:27;;;;;;;2.33;2.03;;;;;;;5.46;71.58;95262.00;4974305;28;20623;-83
2021/12/07 09:50:56;;;;;;;2.13;1.87;;;;;;;5.24;71.10;95262.53;4973977;28;20232;-83
2021/12/07 09:53:24;;;;;;;2.23;1.80;;;;;;;5.18;71.53;95256.31;4974927;28;20238;-83
2021/12/07 09:55:52;;;;;;;2.97;2.00;;;;;;;5.44;71.24;95266.47;4974621;28;20255;-83
2021/12/07 09:58:20;;;;;;;2.37;1.90;;;;;;;5.64;70.45;95261.91;4973618;28;20260;-84
2021/12/07 10:00:48;;;;;;;3.80;1.90;;;;;;;5.71;69.87;95258.59;4973476;28;20318;-82
2021/12/07 10:03:15;;;;;;;2.10;1.87;;;;;;;6.13;69.25;95255.25;4975743;28;20308;-83
2021/12/07 10:05:42;;;;;;;2.67;1.90;;;;;;;6.10;68.50;95258.09;4975259;28;20235;-84
2021/12/07 10:08:09;;;;;;;2.60;1.80;;;;;;;6.06;67.83;95254.25;4976546;28;20212;-84
2021/12/07 10:10:38;;;;;;;5.17;1.93;;;;;;;6.08;67.56;95260.81;4976638;28;20228;-83
2021/12/07 10:13:07;;;;;;;4.23;3.10;;;;;;;5.95;67.64;95255.38;4976691;28;20300;-84
2021/12/07 10:15:35;;;;;;;3.43;2.20;;;;;;;6.27;67.19;95254.63;4980313;28;20196;-84
2021/12/07 10:18:05;;;;;;;3.47;2.00;;;;;;;6.45;66.22;95250.16;4979707;28;20200;-84
2021/12/07 10:20:38;;;;;;;3.33;2.30;;;;;;;6.41;65.76;95243.75;4972548;28;20235;-83
2021/12/07 10:23:22;;;;;;;2.73;1.90;;;;;;;6.36;65.75;95245.19;4979408;28;20236;-83
2021/12/07 10:25:52;;;;;;;2.97;2.03;;;;;;;6.45;64.99;95239.94;4978983;28;20204;-83
2021/12/07 10:28:26;;;;;;;2.80;1.83;;;;;;;6.32;64.47;95238.81;4978410;28;20196;-83
2021/12/07 10:30:54;;;;;;;2.53;1.87;;;;;;;6.20;64.55;95244.22;4978181;28;20257;-83
2021/12/07 10:33:29;;;;;;;1.80;1.70;;;;;;;6.33;64.49;95238.66;4978119;28;20226;-83
2021/12/07 10:36:08;;;;;;;3.73;2.00;;;;;;;6.49;64.03;95246.31;4977935;28;20230;-83
2021/12/07 10:38:35;;;;;;;1.97;1.70;;;;;;;6.41;63.32;95236.06;4972657;28;20231;-83
2021/12/07 10:41:04;;;;;;;1.83;1.73;;;;;;;6.65;62.94;95240.41;4978175;28;20232;-83
2021/12/07 10:43:50;;;;;;;1.87;1.60;;;;;;;6.85;62.55;95239.09;4972052;28;20235;-83
2021/12/07 10:46:35;;;;;;;3.70;2.20;;;;;;;6.99;61.63;95242.75;4976946;28;20200;-83
2021/12/07 10:49:25;;;;;;;3.13;1.93;;;;;;;7.08;61.31;95241.00;4977417;28;20462;-83
2021/12/07 10:52:15;;;;;;;2.90;2.20;;;;;;;7.05;60.21;95237.00;4972838;28;20236;-83
2021/12/07 10:54:46;;;;;;;2.67;2.30;;;;;;;7.17;60.60;95240.81;4971615;28;20224;-84
2021/12/07 10:57:17;;;;;;;3.07;2.17;;;;;;;7.47;60.52;95249.53;4977534;28;20204;-83
2021/12/07 10:59:53;;;;;;;3.63;1.80;;;;;;;7.32;60.08;95256.28;4976719;28;20615;-83
2021/12/07 11:02:24;;;;;;;2.43;1.80;;;;;;;7.18;60.15;95249.28;4976261;28;20203;-83
2021/12/07 11:04:51;;;;;;;1.77;1.60;;;;;;;6.93;60.56;95261.31;4976603;28;20228;-83
2021/12/07 11:07:20;;;;;;;1.80;1.60;;;;;;;6.47;61.71;95268.69;4975418;28;20243;-83
2021/12/07 11:09:56;;;;;;;1.90;1.60;;;;;;;6.28;62.22;95279.22;4977607;28;20231;-83
2021/12/07 11:12:24;;;;;;;3.07;1.70;;;;;;;6.21;62.89;95266.25;4977760;28;20210;-83
2021/12/07 11:14:56;;;;;;;3.07;2.07;;;;;;;6.11;63.19;95264.81;4971969;28;20224;-83
2021/12/07 11:17:27;;;;;;;3.60;1.73;;;;;;;6.16;63.47;95265.13;4970234;28;20208;-83
2021/12/07 11:19:54;;;;;;;4.57;3.93;;;;;;;6.13;63.04;95261.16;4971570;28;20228;-83
2021/12/07 11:22:24;;;;;;;3.77;2.67;;;;;;;6.15;63.14;95253.31;4973405;28;20223;-83
2021/12/07 11:24:52;;;;;;;2.17;1.70;;;;;;;5.97;62.94;95255.19;4968628;28;20220;-82
2021/12/07 11:30:10;;;;;;;1.40;1.30;;;;;;;5.82;63.02;95245.53;4973008;28;20762;-83
2021/12/07 11:32:43;;;;;;;2.77;1.67;;;;;;;5.74;63.06;95244.72;4970936;28;20240;-83
2021/12/07 11:35:19;;;;;;;3.23;1.47;;;;;;;5.78;63.89;95246.78;4974361;28;20224;-83
2021/12/07 11:37:47;;;;;;;2.23;1.77;;;;;;;5.74;63.76;95250.63;4977711;28;20312;-83
2021/12/07 11:40:17;;;;;;;3.23;1.60;;;;;;;5.62;64.20;95245.94;4976319;28;20260;-84
2021/12/07 11:42:44;;;;;;;2.30;1.63;;;;;;;5.71;64.16;95257.81;4976665;28;20576;-84
2021/12/07 11:45:15;;;;;;;2.63;1.60;;;;;;;5.59;64.31;95252.16;4974706;28;20278;-84
2021/12/07 11:47:46;;;;;;;3.17;1.90;;;;;;;5.48;64.22;95262.66;4976044;28;20271;-84
2021/12/07 11:50:21;;;;;;;4.03;1.80;;;;;;;5.50;65.06;95255.66;4974242;28;20224;-84
2021/12/07 11:52:49;;;;;;;2.13;1.47;;;;;;;5.42;64.69;95250.50;4977117;28;20207;-84
2021/12/07 11:55:17;;;;;;;2.93;1.53;;;;;;;5.23;64.35;95236.22;4979157;28;20223;-84
2021/12/07 11:57:43;;;;;;;1.60;1.50;;;;;;;5.28;65.20;95231.44;4981049;28;20235;-84
2021/12/07 12:00:16;;;;;;;3.13;1.87;;;;;;;5.40;65.23;95242.97;4979393;28;20239;-84
2021/12/07 12:02:44;;;;;;;3.73;1.70;;;;;;;5.48;65.34;95239.69;4980199;28;20200;-84
2021/12/07 12:05:11;;;;;;;2.60;1.53;;;;;;;5.47;64.79;95236.31;4978850;28;20247;-84
2021/12/07 12:07:41;;;;;;;1.80;1.40;;;;;;;5.40;65.25;95235.31;4979487;28;20199;-84
2021/12/07 12:10:09;;;;;;;3.53;1.60;;;;;;;5.49;65.91;95241.28;4978179;28;20230;-84
2021/12/07 12:12:46;;;;;;;6.67;4.80;;;;;;;5.45;65.50;95248.44;4979957;28;20247;-84
2021/12/07 12:15:27;;;;;;;3.53;2.30;;;;;;;5.45;64.91;95239.97;4975145;28;20232;-84
2021/12/07 12:18:06;;;;;;;1.40;1.30;;;;;;;5.50;64.41;95228.38;4973822;28;20208;-83
2021/12/07 12:20:43;;;;;;;4.27;1.93;;;;;;;5.62;64.64;95228.88;4977830;28;20809;-84
2021/12/07 12:23:20;;;;;;;1.80;1.60;;;;;;;5.80;64.14;95236.44;4977451;28;20203;-84
2021/12/07 12:25:58;;;;;;;2.23;1.70;;;;;;;6.26;63.46;95235.13;4977750;28;20287;-84
2021/12/07 12:28:26;;;;;;;2.63;1.60;;;;;;;6.26;61.77;95234.31;4977003;28;20212;-84
2021/12/07 12:30:52;;;;;;;3.17;1.60;;;;;;;6.16;62.20;95230.13;4976061;28;20227;-84
2021/12/07 12:33:21;;;;;;;2.60;1.47;;;;;;;6.12;62.25;95207.63;4976270;28;20219;-84
2021/12/07 12:35:53;;;;;;;4.30;1.90;;;;;;;6.34;61.96;95207.00;4974954;28;20204;-84
2021/12/07 12:38:21;;;;;;;2.60;1.50;;;;;;;6.55;62.52;95219.28;4974636;28;20200;-84
2021/12/07 12:40:57;;;;;;;4.10;2.00;;;;;;;6.61;62.14;95220.41;4975724;28;20235;-84
2021/12/07 12:43:35;;;;;;;2.67;1.43;;;;;;;6.67;60.80;95220.59;4980501;28;20227;-84
2021/12/07 12:46:02;;;;;;;2.20;1.80;;;;;;;6.74;60.76;95216.41;4978606;28;20200;-84
2021/12/07 12:48:32;;;;;;;2.53;1.73;;;;;;;6.92;60.02;95216.25;4977325;28;20204;-84
2021/12/07 12:50:59;;;;;;;4.27;1.60;;;;;;;7.22;59.31;95201.91;4975412;28;20598;-84
2021/12/07 12:53:30;;;;;;;2.23;1.60;;;;;;;7.59;59.13;95209.78;4978048;28;20267;-84
2021/12/07 12:55:59;;;;;;;1.60;1.50;;;;;;;7.68;57.47;95207.19;4978477;28;20238;-84
2021/12/07 12:58:39;;;;;;;3.23;1.63;;;;;;;7.75;57.12;95197.84;4978981;28;20292;-84
2021/12/07 13:01:11;;;;;;;4.70;1.80;;;;;;;7.90;56.62;95209.75;4977585;28;20224;-84
2021/12/07 13:03:49;;;;;;;2.47;1.53;;;;;;;7.88;56.29;95205.78;4977546;28;20219;-84
2021/12/07 13:06:18;;;;;;;2.50;1.70;;;;;;;7.91;56.23;95205.44;4974708;28;20223;-83
2021/12/07 13:08:56;;;;;;;2.73;1.43;;;;;;;7.98;56.33;95201.22;4976393;28;20303;-84
2021/12/07 13:11:40;;;;;;;3.53;1.43;;;;;;;7.93;55.60;95188.13;4952959;29;20221;-84